sensor_id;sensor_type;location;lat;lon;timestamp;pressure;altitude;pressure_sealevel;temperature
38114;BMP180;23926;53.222;6.354;2023-05-10T00:01:23;100595.00;;;16.90
38114;BMP180;23926;53.222;6.354;2023-05-10T00:03:49;100591.00;;;17.00
38114;BMP180;23926;53.222;6.354;2023-05-10T00:06:14;100597.00;;;17.10
38114;BMP180;23926;53.222;6.354;2023-05-10T00:08:40;100597.00;;;17.10
38114;BMP180;23926;53.222;6.354;2023-05-10T00:11:05;100582.00;;;17.10
38114;BMP180;23926;53.222;6.354;2023-05-10T00:13:31;100586.00;;;17.20
38114;BMP180;23926;53.222;6.354;2023-05-10T00:15:56;100587.00;;;17.20
38114;BMP180;23926;53.222;6.354;2023-05-10T00:18:22;100586.00;;;17.00
38114;BMP180;23926;53.222;6.354;2023-05-10T00:20:47;100572.00;;;17.10
38114;BMP180;23926;53.222;6.354;2023-05-10T00:23:14;100572.00;;;16.90
38114;BMP180;23926;53.222;6.354;2023-05-10T00:25:39;100583.00;;;16.90
38114;BMP180;23926;53.222;6.354;2023-05-10T00:28:05;100571.00;;;16.90
38114;BMP180;23926;53.222;6.354;2023-05-10T00:30:30;100577.00;;;16.80
38114;BMP180;23926;53.222;6.354;2023-05-10T00:32:56;100576.00;;;16.70
38114;BMP180;23926;53.222;6.354;2023-05-10T00:35:21;100576.00;;;16.70
38114;BMP180;23926;53.222;6.354;2023-05-10T00:37:47;100563.00;;;16.60
38114;BMP180;23926;53.222;6.354;2023-05-10T00:40:12;100554.00;;;16.50
38114;BMP180;23926;53.222;6.354;2023-05-10T00:42:38;100568.00;;;16.50
38114;BMP180;23926;53.222;6.354;2023-05-10T00:45:04;100561.00;;;16.40
38114;BMP180;23926;53.222;6.354;2023-05-10T00:47:29;100562.00;;;16.50
38114;BMP180;23926;53.222;6.354;2023-05-10T00:49:55;100563.00;;;16.40
38114;BMP180;23926;53.222;6.354;2023-05-10T00:52:21;100561.00;;;16.40
38114;BMP180;23926;53.222;6.354;2023-05-10T00:54:49;100553.00;;;16.40
38114;BMP180;23926;53.222;6.354;2023-05-10T00:57:14;100556.00;;;16.40
38114;BMP180;23926;53.222;6.354;2023-05-10T00:59:40;100554.00;;;16.50
38114;BMP180;23926;53.222;6.354;2023-05-10T01:02:06;100557.00;;;16.30
38114;BMP180;23926;53.222;6.354;2023-05-10T01:04:31;100554.00;;;16.20
38114;BMP180;23926;53.222;6.354;2023-05-10T01:06:58;100552.00;;;16.30
38114;BMP180;23926;53.222;6.354;2023-05-10T01:09:24;100539.00;;;16.30
38114;BMP180;23926;53.222;6.354;2023-05-10T01:11:51;100554.00;;;16.20
38114;BMP180;23926;53.222;6.354;2023-05-10T01:14:18;100551.00;;;16.10
38114;BMP180;23926;53.222;6.354;2023-05-10T01:16:45;100557.00;;;16.20
38114;BMP180;23926;53.222;6.354;2023-05-10T01:19:21;100556.00;;;16.20
38114;BMP180;23926;53.222;6.354;2023-05-10T01:33:01;100562.00;;;16.20
38114;BMP180;23926;53.222;6.354;2023-05-10T01:35:41;100562.00;;;16.30
38114;BMP180;23926;53.222;6.354;2023-05-10T01:38:42;100566.00;;;16.30
38114;BMP180;23926;53.222;6.354;2023-05-10T01:41:14;100564.00;;;16.40
38114;BMP180;23926;53.222;6.354;2023-05-10T01:43:58;100562.00;;;16.40
38114;BMP180;23926;53.222;6.354;2023-05-10T01:46:35;100552.00;;;16.30
38114;BMP180;23926;53.222;6.354;2023-05-10T01:49:03;100567.00;;;16.30
38114;BMP180;23926;53.222;6.354;2023-05-10T01:51:36;100564.00;;;16.40
38114;BMP180;23926;53.222;6.354;2023-05-10T01:54:04;100565.00;;;16.30
38114;BMP180;23926;53.222;6.354;2023-05-10T01:56:33;100565.00;;;16.30
38114;BMP180;23926;53.222;6.354;2023-05-10T01:59:00;100559.00;;;16.30
38114;BMP180;23926;53.222;6.354;2023-05-10T02:01:31;100562.00;;;16.30
38114;BMP180;23926;53.222;6.354;2023-05-10T02:03:58;100567.00;;;16.40
38114;BMP180;23926;53.222;6.354;2023-05-10T02:06:25;100568.00;;;16.20
38114;BMP180;23926;53.222;6.354;2023-05-10T02:08:52;100564.00;;;16.20
38114;BMP180;23926;53.222;6.354;2023-05-10T02:11:19;100572.00;;;16.20
38114;BMP180;23926;53.222;6.354;2023-05-10T02:13:47;100570.00;;;16.20
38114;BMP180;23926;53.222;6.354;2023-05-10T02:16:14;100563.00;;;16.20
38114;BMP180;23926;53.222;6.354;2023-05-10T02:18:40;100576.00;;;16.20
38114;BMP180;23926;53.222;6.354;2023-05-10T02:21:08;100574.00;;;16.10
38114;BMP180;23926;53.222;6.354;2023-05-10T02:23:34;100571.00;;;16.20
38114;BMP180;23926;53.222;6.354;2023-05-10T02:26:01;100573.00;;;16.20
38114;BMP180;23926;53.222;6.354;2023-05-10T02:28:27;100577.00;;;16.20
38114;BMP180;23926;53.222;6.354;2023-05-10T02:30:53;100566.00;;;16.30
38114;BMP180;23926;53.222;6.354;2023-05-10T02:33:20;100559.00;;;16.10
38114;BMP180;23926;53.222;6.354;2023-05-10T02:35:46;100573.00;;;16.00
38114;BMP180;23926;53.222;6.354;2023-05-10T02:38:13;100562.00;;;16.00
38114;BMP180;23926;53.222;6.354;2023-05-10T02:40:40;100562.00;;;15.90
38114;BMP180;23926;53.222;6.354;2023-05-10T02:43:09;100569.00;;;15.90
38114;BMP180;23926;53.222;6.354;2023-05-10T02:45:37;100563.00;;;16.00
38114;BMP180;23926;53.222;6.354;2023-05-10T02:48:04;100552.00;;;16.00
38114;BMP180;23926;53.222;6.354;2023-05-10T02:50:31;100559.00;;;16.00
38114;BMP180;23926;53.222;6.354;2023-05-10T02:53:05;100559.00;;;16.20
38114;BMP180;23926;53.222;6.354;2023-05-10T02:55:35;100551.00;;;16.20
38114;BMP180;23926;53.222;6.354;2023-05-10T02:58:02;100561.00;;;16.20
38114;BMP180;23926;53.222;6.354;2023-05-10T03:00:29;100555.00;;;16.30
38114;BMP180;23926;53.222;6.354;2023-05-10T03:02:54;100562.00;;;16.40
38114;BMP180;23926;53.222;6.354;2023-05-10T03:05:20;100555.00;;;16.50
38114;BMP180;23926;53.222;6.354;2023-05-10T03:07:46;100568.00;;;16.50
38114;BMP180;23926;53.222;6.354;2023-05-10T03:10:12;100560.00;;;16.40
38114;BMP180;23926;53.222;6.354;2023-05-10T03:15:37;100560.00;;;16.30
38114;BMP180;23926;53.222;6.354;2023-05-10T03:18:07;100561.00;;;16.20
38114;BMP180;23926;53.222;6.354;2023-05-10T03:20:41;100565.00;;;16.20
38114;BMP180;23926;53.222;6.354;2023-05-10T03:25:48;100556.00;;;15.90
38114;BMP180;23926;53.222;6.354;2023-05-10T03:28:16;100561.00;;;15.90
38114;BMP180;23926;53.222;6.354;2023-05-10T03:30:42;100564.00;;;15.80
38114;BMP180;23926;53.222;6.354;2023-05-10T03:33:08;100561.00;;;15.80
38114;BMP180;23926;53.222;6.354;2023-05-10T03:35:34;100576.00;;;15.80
38114;BMP180;23926;53.222;6.354;2023-05-10T03:38:00;100571.00;;;15.70
38114;BMP180;23926;53.222;6.354;2023-05-10T03:40:26;100555.00;;;15.80
38114;BMP180;23926;53.222;6.354;2023-05-10T03:42:54;100571.00;;;15.60
38114;BMP180;23926;53.222;6.354;2023-05-10T03:45:19;100562.00;;;15.60
38114;BMP180;23926;53.222;6.354;2023-05-10T03:47:45;100562.00;;;15.40
38114;BMP180;23926;53.222;6.354;2023-05-10T03:50:10;100570.00;;;15.60
38114;BMP180;23926;53.222;6.354;2023-05-10T03:52:36;100566.00;;;15.50
38114;BMP180;23926;53.222;6.354;2023-05-10T03:55:01;100568.00;;;15.40
38114;BMP180;23926;53.222;6.354;2023-05-10T03:57:28;100572.00;;;15.40
38114;BMP180;23926;53.222;6.354;2023-05-10T03:59:54;100577.00;;;15.60
38114;BMP180;23926;53.222;6.354;2023-05-10T04:02:19;100567.00;;;15.40
38114;BMP180;23926;53.222;6.354;2023-05-10T04:04:44;100580.00;;;15.40
38114;BMP180;23926;53.222;6.354;2023-05-10T04:07:10;100568.00;;;15.50
38114;BMP180;23926;53.222;6.354;2023-05-10T04:09:35;100573.00;;;15.60
38114;BMP180;23926;53.222;6.354;2023-05-10T04:12:01;100579.00;;;15.60
38114;BMP180;23926;53.222;6.354;2023-05-10T04:14:27;100577.00;;;15.60
38114;BMP180;23926;53.222;6.354;2023-05-10T04:16:52;100591.00;;;15.60
38114;BMP180;23926;53.222;6.354;2023-05-10T04:19:18;100576.00;;;15.60
38114;BMP180;23926;53.222;6.354;2023-05-10T04:21:43;100575.00;;;15.70
38114;BMP180;23926;53.222;6.354;2023-05-10T04:24:09;100582.00;;;15.60
38114;BMP180;23926;53.222;6.354;2023-05-10T04:26:34;100581.00;;;15.70
38114;BMP180;23926;53.222;6.354;2023-05-10T04:29:00;100589.00;;;15.80
38114;BMP180;23926;53.222;6.354;2023-05-10T04:31:25;100589.00;;;15.70
38114;BMP180;23926;53.222;6.354;2023-05-10T04:33:51;100582.00;;;15.60
38114;BMP180;23926;53.222;6.354;2023-05-10T04:36:17;100593.00;;;15.70
38114;BMP180;23926;53.222;6.354;2023-05-10T04:38:42;100593.00;;;15.60
38114;BMP180;23926;53.222;6.354;2023-05-10T04:41:09;100593.00;;;15.60
38114;BMP180;23926;53.222;6.354;2023-05-10T04:43:36;100596.00;;;15.50
38114;BMP180;23926;53.222;6.354;2023-05-10T04:46:01;100597.00;;;15.50
38114;BMP180;23926;53.222;6.354;2023-05-10T04:48:27;100609.00;;;15.60
38114;BMP180;23926;53.222;6.354;2023-05-10T04:50:52;100602.00;;;15.50
38114;BMP180;23926;53.222;6.354;2023-05-10T04:53:17;100605.00;;;15.60
38114;BMP180;23926;53.222;6.354;2023-05-10T04:55:43;100613.00;;;15.70
38114;BMP180;23926;53.222;6.354;2023-05-10T04:58:08;100606.00;;;15.60
38114;BMP180;23926;53.222;6.354;2023-05-10T05:00:34;100614.00;;;15.70
38114;BMP180;23926;53.222;6.354;2023-05-10T05:03:00;100612.00;;;15.50
38114;BMP180;23926;53.222;6.354;2023-05-10T05:05:26;100627.00;;;15.50
38114;BMP180;23926;53.222;6.354;2023-05-10T05:07:51;100627.00;;;15.60
38114;BMP180;23926;53.222;6.354;2023-05-10T05:10:17;100615.00;;;15.60
38114;BMP180;23926;53.222;6.354;2023-05-10T05:12:42;100620.00;;;15.60
38114;BMP180;23926;53.222;6.354;2023-05-10T05:15:08;100626.00;;;15.60
38114;BMP180;23926;53.222;6.354;2023-05-10T05:17:35;100630.00;;;15.70
38114;BMP180;23926;53.222;6.354;2023-05-10T05:20:00;100634.00;;;15.60
38114;BMP180;23926;53.222;6.354;2023-05-10T05:22:26;100632.00;;;15.70
38114;BMP180;23926;53.222;6.354;2023-05-10T05:24:55;100638.00;;;15.60
38114;BMP180;23926;53.222;6.354;2023-05-10T05:27:21;100638.00;;;15.60
38114;BMP180;23926;53.222;6.354;2023-05-10T05:29:50;100639.00;;;15.70
38114;BMP180;23926;53.222;6.354;2023-05-10T05:32:16;100639.00;;;15.60
38114;BMP180;23926;53.222;6.354;2023-05-10T05:34:43;100638.00;;;15.70
38114;BMP180;23926;53.222;6.354;2023-05-10T05:37:15;100647.00;;;15.70
38114;BMP180;23926;53.222;6.354;2023-05-10T05:39:42;100655.00;;;15.60
38114;BMP180;23926;53.222;6.354;2023-05-10T05:42:08;100655.00;;;15.60
38114;BMP180;23926;53.222;6.354;2023-05-10T05:44:34;100648.00;;;15.50
38114;BMP180;23926;53.222;6.354;2023-05-10T05:46:59;100662.00;;;15.50
38114;BMP180;23926;53.222;6.354;2023-05-10T05:49:25;100652.00;;;15.30
38114;BMP180;23926;53.222;6.354;2023-05-10T05:51:50;100652.00;;;15.40
38114;BMP180;23926;53.222;6.354;2023-05-10T05:54:16;100655.00;;;15.40
38114;BMP180;23926;53.222;6.354;2023-05-10T05:56:41;100664.00;;;15.50
38114;BMP180;23926;53.222;6.354;2023-05-10T05:59:06;100665.00;;;15.40
38114;BMP180;23926;53.222;6.354;2023-05-10T06:01:33;100669.00;;;15.40
38114;BMP180;23926;53.222;6.354;2023-05-10T06:03:59;100682.00;;;15.50
38114;BMP180;23926;53.222;6.354;2023-05-10T06:06:25;100681.00;;;15.40
38114;BMP180;23926;53.222;6.354;2023-05-10T06:08:50;100684.00;;;15.40
38114;BMP180;23926;53.222;6.354;2023-05-10T06:11:16;100672.00;;;15.40
38114;BMP180;23926;53.222;6.354;2023-05-10T06:13:41;100683.00;;;15.40
38114;BMP180;23926;53.222;6.354;2023-05-10T06:16:07;100691.00;;;15.30
38114;BMP180;23926;53.222;6.354;2023-05-10T06:18:33;100698.00;;;15.20
38114;BMP180;23926;53.222;6.354;2023-05-10T06:20:58;100696.00;;;15.30
38114;BMP180;23926;53.222;6.354;2023-05-10T06:23:23;100698.00;;;15.10
38114;BMP180;23926;53.222;6.354;2023-05-10T06:25:51;100705.00;;;15.10
38114;BMP180;23926;53.222;6.354;2023-05-10T06:28:16;100697.00;;;15.10
38114;BMP180;23926;53.222;6.354;2023-05-10T06:30:42;100695.00;;;15.10
38114;BMP180;23926;53.222;6.354;2023-05-10T06:33:07;100695.00;;;15.10
38114;BMP180;23926;53.222;6.354;2023-05-10T06:35:32;100693.00;;;15.00
38114;BMP180;23926;53.222;6.354;2023-05-10T06:37:58;100713.00;;;15.20
38114;BMP180;23926;53.222;6.354;2023-05-10T06:40:24;100720.00;;;15.10
38114;BMP180;23926;53.222;6.354;2023-05-10T06:42:49;100716.00;;;15.10
38114;BMP180;23926;53.222;6.354;2023-05-10T06:45:15;100723.00;;;15.20
38114;BMP180;23926;53.222;6.354;2023-05-10T06:47:41;100730.00;;;15.20
38114;BMP180;23926;53.222;6.354;2023-05-10T06:50:08;100729.00;;;15.10
38114;BMP180;23926;53.222;6.354;2023-05-10T06:52:33;100729.00;;;15.20
38114;BMP180;23926;53.222;6.354;2023-05-10T06:54:59;100724.00;;;15.30
38114;BMP180;23926;53.222;6.354;2023-05-10T06:57:25;100733.00;;;15.20
38114;BMP180;23926;53.222;6.354;2023-05-10T06:59:51;100737.00;;;15.20
38114;BMP180;23926;53.222;6.354;2023-05-10T07:02:17;100742.00;;;15.30
38114;BMP180;23926;53.222;6.354;2023-05-10T07:04:42;100734.00;;;15.30
38114;BMP180;23926;53.222;6.354;2023-05-10T07:07:08;100736.00;;;15.40
38114;BMP180;23926;53.222;6.354;2023-05-10T07:09:33;100738.00;;;15.40
38114;BMP180;23926;53.222;6.354;2023-05-10T07:11:59;100733.00;;;15.50
38114;BMP180;23926;53.222;6.354;2023-05-10T07:14:24;100738.00;;;15.70
38114;BMP180;23926;53.222;6.354;2023-05-10T07:16:50;100741.00;;;15.90
38114;BMP180;23926;53.222;6.354;2023-05-10T07:19:15;100739.00;;;15.80
38114;BMP180;23926;53.222;6.354;2023-05-10T07:21:40;100738.00;;;15.90
38114;BMP180;23926;53.222;6.354;2023-05-10T07:24:08;100749.00;;;15.90
38114;BMP180;23926;53.222;6.354;2023-05-10T07:26:33;100753.00;;;15.80
38114;BMP180;23926;53.222;6.354;2023-05-10T07:28:59;100758.00;;;15.80
38114;BMP180;23926;53.222;6.354;2023-05-10T07:31:24;100761.00;;;15.60
38114;BMP180;23926;53.222;6.354;2023-05-10T07:33:50;100743.00;;;15.60
38114;BMP180;23926;53.222;6.354;2023-05-10T07:36:15;100765.00;;;15.60
38114;BMP180;23926;53.222;6.354;2023-05-10T07:38:40;100755.00;;;15.80
38114;BMP180;23926;53.222;6.354;2023-05-10T07:41:06;100768.00;;;15.90
38114;BMP180;23926;53.222;6.354;2023-05-10T07:43:31;100764.00;;;15.90
38114;BMP180;23926;53.222;6.354;2023-05-10T07:45:57;100757.00;;;15.70
38114;BMP180;23926;53.222;6.354;2023-05-10T07:48:22;100771.00;;;15.70
38114;BMP180;23926;53.222;6.354;2023-05-10T07:50:48;100764.00;;;15.80
38114;BMP180;23926;53.222;6.354;2023-05-10T07:53:13;100754.00;;;15.90
38114;BMP180;23926;53.222;6.354;2023-05-10T07:55:39;100768.00;;;16.00
38114;BMP180;23926;53.222;6.354;2023-05-10T07:58:04;100777.00;;;16.00
38114;BMP180;23926;53.222;6.354;2023-05-10T08:00:29;100785.00;;;16.00
38114;BMP180;23926;53.222;6.354;2023-05-10T08:02:55;100788.00;;;15.70
38114;BMP180;23926;53.222;6.354;2023-05-10T08:05:20;100790.00;;;16.00
38114;BMP180;23926;53.222;6.354;2023-05-10T08:07:46;100796.00;;;16.00
38114;BMP180;23926;53.222;6.354;2023-05-10T08:10:11;100790.00;;;15.80
38114;BMP180;23926;53.222;6.354;2023-05-10T08:12:37;100800.00;;;15.80
38114;BMP180;23926;53.222;6.354;2023-05-10T08:15:03;100803.00;;;16.20
38114;BMP180;23926;53.222;6.354;2023-05-10T08:17:29;100806.00;;;16.00
38114;BMP180;23926;53.222;6.354;2023-05-10T08:19:54;100806.00;;;16.10
38114;BMP180;23926;53.222;6.354;2023-05-10T08:22:20;100818.00;;;16.00
38114;BMP180;23926;53.222;6.354;2023-05-10T08:24:45;100804.00;;;16.00
38114;BMP180;23926;53.222;6.354;2023-05-10T08:27:11;100815.00;;;16.00
38114;BMP180;23926;53.222;6.354;2023-05-10T08:29:37;100811.00;;;15.90
38114;BMP180;23926;53.222;6.354;2023-05-10T08:32:02;100814.00;;;16.10
38114;BMP180;23926;53.222;6.354;2023-05-10T08:34:28;100816.00;;;16.10
38114;BMP180;23926;53.222;6.354;2023-05-10T08:36:53;100816.00;;;16.10
38114;BMP180;23926;53.222;6.354;2023-05-10T08:39:19;100817.00;;;16.10
38114;BMP180;23926;53.222;6.354;2023-05-10T08:41:45;100816.00;;;16.10
38114;BMP180;23926;53.222;6.354;2023-05-10T08:44:11;100820.00;;;16.20
38114;BMP180;23926;53.222;6.354;2023-05-10T08:46:41;100825.00;;;16.20
38114;BMP180;23926;53.222;6.354;2023-05-10T08:49:13;100828.00;;;16.40
38114;BMP180;23926;53.222;6.354;2023-05-10T08:51:45;100823.00;;;16.60
38114;BMP180;23926;53.222;6.354;2023-05-10T08:54:12;100843.00;;;16.60
38114;BMP180;23926;53.222;6.354;2023-05-10T08:56:38;100850.00;;;16.70
38114;BMP180;23926;53.222;6.354;2023-05-10T08:59:03;100848.00;;;16.90
38114;BMP180;23926;53.222;6.354;2023-05-10T09:01:31;100850.00;;;17.00
38114;BMP180;23926;53.222;6.354;2023-05-10T09:03:57;100844.00;;;17.30
38114;BMP180;23926;53.222;6.354;2023-05-10T09:06:23;100853.00;;;17.20
38114;BMP180;23926;53.222;6.354;2023-05-10T09:08:49;100859.00;;;17.20
38114;BMP180;23926;53.222;6.354;2023-05-10T09:11:16;100853.00;;;17.10
38114;BMP180;23926;53.222;6.354;2023-05-10T09:13:42;100858.00;;;17.20
38114;BMP180;23926;53.222;6.354;2023-05-10T09:16:07;100860.00;;;17.30
38114;BMP180;23926;53.222;6.354;2023-05-10T09:18:33;100865.00;;;17.40
38114;BMP180;23926;53.222;6.354;2023-05-10T09:20:58;100864.00;;;17.70
38114;BMP180;23926;53.222;6.354;2023-05-10T09:23:23;100869.00;;;17.50
38114;BMP180;23926;53.222;6.354;2023-05-10T09:26:06;100888.00;;;17.40
38114;BMP180;23926;53.222;6.354;2023-05-10T09:28:53;100885.00;;;17.40
38114;BMP180;23926;53.222;6.354;2023-05-10T09:31:19;100872.00;;;17.40
38114;BMP180;23926;53.222;6.354;2023-05-10T09:33:46;100885.00;;;17.40
38114;BMP180;23926;53.222;6.354;2023-05-10T09:36:13;100880.00;;;17.60
38114;BMP180;23926;53.222;6.354;2023-05-10T09:38:51;100892.00;;;17.90
38114;BMP180;23926;53.222;6.354;2023-05-10T09:41:22;100886.00;;;18.00
38114;BMP180;23926;53.222;6.354;2023-05-10T09:43:48;100893.00;;;18.10
38114;BMP180;23926;53.222;6.354;2023-05-10T09:46:15;100893.00;;;17.90
38114;BMP180;23926;53.222;6.354;2023-05-10T09:48:47;100891.00;;;17.70
38114;BMP180;23926;53.222;6.354;2023-05-10T09:51:22;100900.00;;;17.90
38114;BMP180;23926;53.222;6.354;2023-05-10T09:53:48;100901.00;;;18.20
38114;BMP180;23926;53.222;6.354;2023-05-10T09:56:33;100895.00;;;18.00
38114;BMP180;23926;53.222;6.354;2023-05-10T09:59:03;100893.00;;;18.10
38114;BMP180;23926;53.222;6.354;2023-05-10T10:01:29;100888.00;;;18.20
38114;BMP180;23926;53.222;6.354;2023-05-10T10:03:54;100894.00;;;18.20
38114;BMP180;23926;53.222;6.354;2023-05-10T10:06:20;100909.00;;;18.00
38114;BMP180;23926;53.222;6.354;2023-05-10T10:08:46;100910.00;;;17.80
38114;BMP180;23926;53.222;6.354;2023-05-10T10:11:11;100915.00;;;17.70
38114;BMP180;23926;53.222;6.354;2023-05-10T10:13:36;100915.00;;;17.80
38114;BMP180;23926;53.222;6.354;2023-05-10T10:16:02;100917.00;;;17.70
38114;BMP180;23926;53.222;6.354;2023-05-10T10:18:28;100922.00;;;17.80
38114;BMP180;23926;53.222;6.354;2023-05-10T10:20:55;100932.00;;;17.80
38114;BMP180;23926;53.222;6.354;2023-05-10T10:23:21;100923.00;;;17.70
38114;BMP180;23926;53.222;6.354;2023-05-10T10:25:47;100934.00;;;18.10
38114;BMP180;23926;53.222;6.354;2023-05-10T10:28:24;100941.00;;;18.20
38114;BMP180;23926;53.222;6.354;2023-05-10T10:30:54;100926.00;;;18.40
38114;BMP180;23926;53.222;6.354;2023-05-10T10:36:05;100943.00;;;18.70
38114;BMP180;23926;53.222;6.354;2023-05-10T10:41:35;100945.00;;;18.90
38114;BMP180;23926;53.222;6.354;2023-05-10T10:47:09;100947.00;;;18.90
38114;BMP180;23926;53.222;6.354;2023-05-10T10:52:36;100955.00;;;18.70
38114;BMP180;23926;53.222;6.354;2023-05-10T10:55:19;100951.00;;;18.50
38114;BMP180;23926;53.222;6.354;2023-05-10T11:02:48;100956.00;;;18.80
38114;BMP180;23926;53.222;6.354;2023-05-10T11:05:24;100954.00;;;18.80
38114;BMP180;23926;53.222;6.354;2023-05-10T11:07:57;100954.00;;;18.70
38114;BMP180;23926;53.222;6.354;2023-05-10T11:10:23;100968.00;;;18.60
38114;BMP180;23926;53.222;6.354;2023-05-10T11:13:00;100972.00;;;18.60
38114;BMP180;23926;53.222;6.354;2023-05-10T11:15:38;100971.00;;;18.70
38114;BMP180;23926;53.222;6.354;2023-05-10T11:18:20;100970.00;;;18.70
38114;BMP180;23926;53.222;6.354;2023-05-10T11:20:58;100968.00;;;18.70
38114;BMP180;23926;53.222;6.354;2023-05-10T11:26:13;100965.00;;;18.60
38114;BMP180;23926;53.222;6.354;2023-05-10T11:28:48;100984.00;;;18.50
38114;BMP180;23926;53.222;6.354;2023-05-10T11:31:18;100975.00;;;18.30
38114;BMP180;23926;53.222;6.354;2023-05-10T11:33:50;100967.00;;;18.10
38114;BMP180;23926;53.222;6.354;2023-05-10T11:36:27;100982.00;;;17.90
38114;BMP180;23926;53.222;6.354;2023-05-10T11:38:55;100975.00;;;17.80
38114;BMP180;23926;53.222;6.354;2023-05-10T11:41:22;100986.00;;;17.80
38114;BMP180;23926;53.222;6.354;2023-05-10T11:43:50;100994.00;;;18.00
38114;BMP180;23926;53.222;6.354;2023-05-10T11:46:18;100988.00;;;18.00
38114;BMP180;23926;53.222;6.354;2023-05-10T11:48:46;100991.00;;;17.90
38114;BMP180;23926;53.222;6.354;2023-05-10T11:51:12;100999.00;;;18.00
38114;BMP180;23926;53.222;6.354;2023-05-10T11:53:37;101008.00;;;18.10
38114;BMP180;23926;53.222;6.354;2023-05-10T11:56:07;100997.00;;;18.20
38114;BMP180;23926;53.222;6.354;2023-05-10T11:58:33;101005.00;;;18.10
38114;BMP180;23926;53.222;6.354;2023-05-10T12:01:00;101001.00;;;18.10
38114;BMP180;23926;53.222;6.354;2023-05-10T12:03:26;101009.00;;;18.10
38114;BMP180;23926;53.222;6.354;2023-05-10T12:05:52;101002.00;;;18.20
38114;BMP180;23926;53.222;6.354;2023-05-10T12:08:27;101007.00;;;18.20
38114;BMP180;23926;53.222;6.354;2023-05-10T12:11:02;101004.00;;;18.50
38114;BMP180;23926;53.222;6.354;2023-05-10T12:13:28;101013.00;;;18.60
38114;BMP180;23926;53.222;6.354;2023-05-10T12:15:57;101010.00;;;18.70
38114;BMP180;23926;53.222;6.354;2023-05-10T12:18:23;101006.00;;;18.80
38114;BMP180;23926;53.222;6.354;2023-05-10T12:20:52;101006.00;;;18.90
38114;BMP180;23926;53.222;6.354;2023-05-10T12:23:21;101019.00;;;19.20
38114;BMP180;23926;53.222;6.354;2023-05-10T12:25:46;101014.00;;;19.20
38114;BMP180;23926;53.222;6.354;2023-05-10T12:28:12;101020.00;;;19.20
38114;BMP180;23926;53.222;6.354;2023-05-10T12:30:38;101014.00;;;19.10
38114;BMP180;23926;53.222;6.354;2023-05-10T12:33:10;101016.00;;;19.00
38114;BMP180;23926;53.222;6.354;2023-05-10T12:35:51;101029.00;;;19.00
38114;BMP180;23926;53.222;6.354;2023-05-10T12:38:38;101028.00;;;19.00
38114;BMP180;23926;53.222;6.354;2023-05-10T12:41:08;101032.00;;;18.90
38114;BMP180;23926;53.222;6.354;2023-05-10T12:43:35;101027.00;;;19.00
38114;BMP180;23926;53.222;6.354;2023-05-10T12:46:14;101034.00;;;19.10
38114;BMP180;23926;53.222;6.354;2023-05-10T12:48:41;101038.00;;;19.10
38114;BMP180;23926;53.222;6.354;2023-05-10T12:51:07;101032.00;;;18.90
38114;BMP180;23926;53.222;6.354;2023-05-10T12:53:42;101038.00;;;19.10
38114;BMP180;23926;53.222;6.354;2023-05-10T12:56:08;101048.00;;;19.20
38114;BMP180;23926;53.222;6.354;2023-05-10T12:58:34;101051.00;;;19.30
38114;BMP180;23926;53.222;6.354;2023-05-10T13:00:59;101046.00;;;19.10
38114;BMP180;23926;53.222;6.354;2023-05-10T13:03:25;101041.00;;;19.20
38114;BMP180;23926;53.222;6.354;2023-05-10T13:05:50;101047.00;;;19.10
38114;BMP180;23926;53.222;6.354;2023-05-10T13:08:16;101044.00;;;19.10
38114;BMP180;23926;53.222;6.354;2023-05-10T13:10:41;101058.00;;;19.00
38114;BMP180;23926;53.222;6.354;2023-05-10T13:13:07;101057.00;;;18.90
38114;BMP180;23926;53.222;6.354;2023-05-10T13:15:33;101053.00;;;18.90
38114;BMP180;23926;53.222;6.354;2023-05-10T13:17:59;101057.00;;;19.00
38114;BMP180;23926;53.222;6.354;2023-05-10T13:20:25;101056.00;;;19.20
38114;BMP180;23926;53.222;6.354;2023-05-10T13:22:50;101058.00;;;19.30
38114;BMP180;23926;53.222;6.354;2023-05-10T13:25:16;101063.00;;;19.50
38114;BMP180;23926;53.222;6.354;2023-05-10T13:27:41;101053.00;;;19.60
38114;BMP180;23926;53.222;6.354;2023-05-10T13:30:08;101061.00;;;19.50
38114;BMP180;23926;53.222;6.354;2023-05-10T13:32:34;101070.00;;;19.70
38114;BMP180;23926;53.222;6.354;2023-05-10T13:35:00;101062.00;;;19.50
38114;BMP180;23926;53.222;6.354;2023-05-10T13:37:25;101067.00;;;19.40
38114;BMP180;23926;53.222;6.354;2023-05-10T13:39:51;101074.00;;;19.40
38114;BMP180;23926;53.222;6.354;2023-05-10T13:42:17;101066.00;;;19.50
38114;BMP180;23926;53.222;6.354;2023-05-10T13:44:42;101071.00;;;19.50
38114;BMP180;23926;53.222;6.354;2023-05-10T13:47:08;101066.00;;;19.60
38114;BMP180;23926;53.222;6.354;2023-05-10T13:49:33;101065.00;;;19.60
38114;BMP180;23926;53.222;6.354;2023-05-10T13:51:59;101070.00;;;19.70
38114;BMP180;23926;53.222;6.354;2023-05-10T13:54:31;101069.00;;;19.70
38114;BMP180;23926;53.222;6.354;2023-05-10T13:56:57;101078.00;;;19.60
38114;BMP180;23926;53.222;6.354;2023-05-10T13:59:22;101076.00;;;19.70
38114;BMP180;23926;53.222;6.354;2023-05-10T14:01:48;101071.00;;;19.70
38114;BMP180;23926;53.222;6.354;2023-05-10T14:04:13;101071.00;;;19.70
38114;BMP180;23926;53.222;6.354;2023-05-10T14:06:39;101064.00;;;19.90
38114;BMP180;23926;53.222;6.354;2023-05-10T14:09:04;101074.00;;;20.10
38114;BMP180;23926;53.222;6.354;2023-05-10T14:11:29;101071.00;;;20.20
38114;BMP180;23926;53.222;6.354;2023-05-10T14:13:55;101074.00;;;20.50
38114;BMP180;23926;53.222;6.354;2023-05-10T14:16:21;101066.00;;;20.60
38114;BMP180;23926;53.222;6.354;2023-05-10T14:18:46;101073.00;;;20.70
38114;BMP180;23926;53.222;6.354;2023-05-10T14:21:12;101071.00;;;20.80
38114;BMP180;23926;53.222;6.354;2023-05-10T14:23:38;101073.00;;;20.70
38114;BMP180;23926;53.222;6.354;2023-05-10T14:26:03;101068.00;;;20.60
38114;BMP180;23926;53.222;6.354;2023-05-10T14:28:29;101076.00;;;20.50
38114;BMP180;23926;53.222;6.354;2023-05-10T14:30:54;101081.00;;;20.50
38114;BMP180;23926;53.222;6.354;2023-05-10T14:33:20;101070.00;;;20.60